Aviation Digital Data Service (ADDS)

Output produced by METARs form (1852 UTC 26 March 2017)
found at http://aviationweather.gov/adds/metars/
 
KFNT 261739Z 2618/2718 13008KT 3SM -SHRA BR BKN005 OVC025 
     FM262100 16006KT 5SM -SHRA BKN012 OVC025 
     FM270200 19005KT 4SM -SHRA BR OVC008 
     FM270500 23005KT 4SM BR OVC005 
     FM271500 24008KT P6SM BKN015 OVC050